Time;durP1;ratioP1;P1;durP2;ratioP2;P2;SDS_P1;SDS_P2;PMS_P1;PMS_P2;Temp;Humidity;BMP_temperature;BMP_pressure;BME280_temperature;BME280_humidity;BME280_pressure;Samples;Min_cycle;Max_cycle;Signal;HPM_P1;HPM_P2
2023/10/27 00:01:32;;;;;;;24.67;16.47;;;;;;;10.16;100.00;99182.63;5090399;28;20458;-35
2023/10/27 00:03:58;;;;;;;19.92;17.85;;;;;;;10.19;100.00;99196.38;5090456;28;20043;-35
2023/10/27 00:06:23;;;;;;;21.73;18.80;;;;;;;10.13;100.00;99183.16;5089972;28;20055;-35
2023/10/27 00:08:48;;;;;;;20.97;18.70;;;;;;;10.18;100.00;99194.78;5080816;28;20263;-35
2023/10/27 00:11:14;;;;;;;24.77;18.10;;;;;;;10.18;100.00;99193.97;5076300;28;20059;-35
2023/10/27 00:13:39;;;;;;;20.53;18.30;;;;;;;10.16;100.00;99188.84;5075036;28;20027;-35
2023/10/27 00:16:09;;;;;;;21.10;18.80;;;;;;;10.19;100.00;99195.59;5075972;28;20247;-35
2023/10/27 00:18:35;;;;;;;23.15;17.83;;;;;;;10.21;100.00;99191.56;5076161;28;20263;-35
2023/10/27 00:21:00;;;;;;;21.75;17.08;;;;;;;10.07;100.00;99164.25;5076516;28;20378;-35
2023/10/27 00:23:26;;;;;;;22.63;18.20;;;;;;;10.24;100.00;99190.22;5076197;28;20052;-35
2023/10/27 00:25:51;;;;;;;20.83;16.93;;;;;;;10.12;100.00;99170.75;5076124;28;20048;-35
2023/10/27 00:28:17;;;;;;;21.48;18.17;;;;;;;10.24;100.00;99179.41;5076238;28;20070;-35
2023/10/27 00:30:43;;;;;;;22.55;18.55;;;;;;;10.18;100.00;99172.34;5075695;28;20036;-35
2023/10/27 00:33:08;;;;;;;20.33;18.13;;;;;;;10.24;100.00;99171.31;5076752;28;20024;-34
2023/10/27 00:35:33;;;;;;;20.95;17.33;;;;;;;10.24;100.00;99166.72;5076791;28;20020;-34
2023/10/27 00:38:00;;;;;;;24.10;18.93;;;;;;;10.26;100.00;99169.16;5075888;28;20028;-35
2023/10/27 00:40:25;;;;;;;26.80;19.95;;;;;;;10.22;100.00;99166.16;5075852;28;20020;-34
2023/10/27 00:42:51;;;;;;;21.30;17.40;;;;;;;10.24;100.00;99169.41;5075741;28;20024;-35
2023/10/27 00:45:16;;;;;;;23.00;17.43;;;;;;;10.23;100.00;99167.75;5076340;28;20387;-35
2023/10/27 00:47:42;;;;;;;25.60;19.83;;;;;;;10.24;100.00;99160.50;5075336;28;20267;-35
2023/10/27 00:50:08;;;;;;;24.77;19.75;;;;;;;10.23;100.00;99159.66;5075625;28;20057;-35
2023/10/27 00:52:34;;;;;;;23.25;17.85;;;;;;;10.18;100.00;99153.44;5075472;28;20025;-35
2023/10/27 00:55:00;;;;;;;;;;;;;;;10.29;100.00;99164.00;5075951;28;20059;-35
2023/10/27 00:57:26;;;;;;;22.83;18.17;;;;;;;10.25;100.00;99157.56;5075427;28;19956;-35
2023/10/27 00:59:52;;;;;;;21.65;18.27;;;;;;;10.20;100.00;99145.88;5075520;28;20021;-35
2023/10/27 01:02:18;;;;;;;24.20;18.33;;;;;;;10.26;100.00;99164.56;5075420;28;20107;-35
2023/10/27 01:04:44;;;;;;;21.88;19.23;;;;;;;10.21;100.00;99164.53;5075375;28;20031;-35
2023/10/27 01:07:09;;;;;;;25.10;18.70;;;;;;;10.26;100.00;99161.06;5076098;28;20441;-35
2023/10/27 01:09:35;;;;;;;22.13;18.00;;;;;;;10.26;100.00;99166.47;5075618;28;20082;-35
2023/10/27 01:12:00;;;;;;;19.40;16.48;;;;;;;10.26;100.00;99155.66;5076053;28;20020;-35
2023/10/27 01:14:27;;;;;;;20.90;16.50;;;;;;;10.26;100.00;99155.66;5075728;28;20027;-35
2023/10/27 01:16:52;;;;;;;21.98;16.50;;;;;;;10.24;100.00;99153.22;5075628;28;20017;-35
2023/10/27 01:19:18;;;;;;;21.45;16.33;;;;;;;10.26;100.00;99156.47;5074403;28;20486;-35
2023/10/27 01:21:43;;;;;;;19.85;16.13;;;;;;;10.27;100.00;99158.06;5074240;28;20479;-35
2023/10/27 01:24:09;;;;;;;25.37;17.53;;;;;;;10.28;100.00;99151.59;5075026;28;20028;-35
2023/10/27 01:26:34;;;;;;;21.13;16.13;;;;;;;10.28;100.00;99153.47;5074978;28;20056;-35
2023/10/27 01:28:59;;;;;;;19.20;15.07;;;;;;;10.20;100.00;99137.78;5075177;28;20262;-35
2023/10/27 01:31:25;;;;;;;21.70;15.23;;;;;;;10.25;100.00;99149.44;5074526;28;20012;-35
2023/10/27 01:33:50;;;;;;;18.92;14.75;;;;;;;10.17;100.00;99128.34;5075066;28;20048;-35
2023/10/27 01:36:15;;;;;;;18.40;14.70;;;;;;;10.28;100.00;99151.59;5075247;28;20032;-35
2023/10/27 01:38:41;;;;;;;19.90;14.60;;;;;;;10.23;100.00;99150.75;5074691;28;20038;-35
2023/10/27 01:41:06;;;;;;;19.13;14.10;;;;;;;10.20;100.00;99140.47;5074931;28;20024;-35
2023/10/27 01:43:32;;;;;;;16.17;13.13;;;;;;;10.28;100.00;99146.19;5075377;28;20111;-35
2023/10/27 01:45:57;;;;;;;18.00;13.50;;;;;;;10.26;100.00;99142.16;5074514;28;20048;-35
2023/10/27 01:48:22;;;;;;;20.47;13.33;;;;;;;10.27;100.00;99141.88;5074790;28;20074;-35
2023/10/27 01:50:49;;;;;;;20.30;13.33;;;;;;;10.26;100.00;99142.97;5074451;28;20056;-35
2023/10/27 01:53:14;;;;;;;;;;;;;;;10.32;100.00;99139.16;5074793;28;20123;-35
2023/10/27 01:55:40;;;;;;;16.80;12.45;;;;;;;10.27;100.00;99141.06;5074939;28;20041;-35
2023/10/27 01:58:05;;;;;;;18.02;12.48;;;;;;;10.21;100.00;99123.22;5074270;28;20063;-35
2023/10/27 02:00:31;;;;;;;16.52;11.70;;;;;;;10.26;100.00;99134.03;5074510;28;20056;-35
2023/10/27 02:02:56;;;;;;;17.00;12.07;;;;;;;10.27;100.00;99132.97;5074808;28;20372;-35
2023/10/27 02:05:21;;;;;;;18.13;11.88;;;;;;;10.21;100.00;99125.91;5074250;28;20118;-35
2023/10/27 02:07:47;;;;;;;15.80;12.57;;;;;;;10.26;100.00;99129.44;5074122;28;20052;-35
2023/10/27 02:10:12;;;;;;;17.75;11.98;;;;;;;10.27;100.00;99130.25;5073814;28;20020;-35
2023/10/27 02:12:37;;;;;;;20.75;12.02;;;;;;;10.25;100.00;99127.84;5074051;28;20036;-35
2023/10/27 02:15:04;;;;;;;16.93;11.93;;;;;;;10.26;100.00;99123.25;5074056;28;20453;-35
2023/10/27 02:17:29;;;;;;;;;;;;;;;10.31;100.00;99123.22;5074826;28;20278;-35
2023/10/27 02:19:55;;;;;;;15.65;10.48;;;;;;;10.27;100.00;99124.84;5074498;28;20053;-35
2023/10/27 02:22:21;;;;;;;15.45;11.52;;;;;;;10.27;100.00;99124.84;5073538;28;20031;-35
2023/10/27 02:24:46;;;;;;;16.35;11.65;;;;;;;10.26;100.00;99120.53;5074734;28;20028;-36
2023/10/27 02:27:12;;;;;;;17.83;11.40;;;;;;;10.26;100.00;99120.53;5073595;28;20050;-35
2023/10/27 02:29:37;;;;;;;19.20;11.53;;;;;;;10.26;100.00;99117.84;5073583;28;20154;-35
2023/10/27 02:32:03;;;;;;;16.80;10.85;;;;;;;10.24;100.00;99109.16;5073506;28;20020;-35
2023/10/27 02:34:28;;;;;;;19.48;11.27;;;;;;;10.26;100.00;99112.44;5073797;28;20027;-35
2023/10/27 02:36:54;;;;;;;15.07;10.93;;;;;;;10.23;100.00;99102.94;5074293;28;20078;-34
2023/10/27 02:39:19;;;;;;;15.33;10.17;;;;;;;10.27;100.00;99108.66;5074034;28;20277;-35
2023/10/27 02:41:45;;;;;;;18.17;10.90;;;;;;;10.24;100.00;99111.88;5074245;28;20259;-34
2023/10/27 02:44:10;;;;;;;13.02;10.10;;;;;;;10.26;100.00;99110.53;5073400;28;20457;-34
2023/10/27 02:46:36;;;;;;;15.63;10.90;;;;;;;10.25;100.00;99106.22;5074006;28;20036;-35
2023/10/27 02:49:05;;;;;;;13.82;10.48;;;;;;;10.23;100.00;99102.94;5073599;28;20024;-35
2023/10/27 02:51:31;;;;;;;21.25;10.60;;;;;;;10.22;100.00;99104.03;5073635;28;20032;-35
2023/10/27 02:53:57;;;;;;;19.20;10.68;;;;;;;10.24;100.00;99104.56;5073617;28;20444;-34
2023/10/27 02:56:23;;;;;;;17.60;10.40;;;;;;;10.03;100.00;99071.34;5073502;28;20155;-35
2023/10/27 02:58:49;;;;;;;16.80;11.00;;;;;;;10.17;100.00;99098.63;5073857;28;20024;-35
2023/10/27 03:01:15;;;;;;;15.20;9.90;;;;;;;10.23;100.00;99099.44;5073866;28;20455;-34
2023/10/27 03:03:41;;;;;;;18.02;11.18;;;;;;;10.16;100.00;99090.78;5073776;28;20027;-35
2023/10/27 03:06:07;;;;;;;19.63;11.63;;;;;;;10.13;100.00;99083.22;5073491;28;20070;-35
2023/10/27 03:08:33;;;;;;;17.50;10.80;;;;;;;10.23;100.00;99091.31;5073360;28;20029;-35
2023/10/27 03:10:59;;;;;;;16.15;10.40;;;;;;;10.22;100.00;99089.72;5073885;28;20029;-35
2023/10/27 03:13:24;;;;;;;16.03;9.17;;;;;;;10.23;100.00;99094.81;5073347;28;20016;-34
2023/10/27 03:15:49;;;;;;;14.47;9.37;;;;;;;10.16;100.00;99080.81;5073743;28;20341;-34
2023/10/27 03:18:15;;;;;;;13.82;9.95;;;;;;;10.24;100.00;99095.66;5073287;28;20021;-35
2023/10/27 03:20:40;;;;;;;12.57;8.35;;;;;;;10.25;100.00;99094.59;5073313;28;20067;-35
2023/10/27 03:23:05;;;;;;;12.07;8.87;;;;;;;10.25;100.00;99090.00;5073577;28;20078;-35
2023/10/27 03:25:31;;;;;;;15.87;9.30;;;;;;;10.18;100.00;99085.91;5073260;28;20257;-35
2023/10/27 03:27:56;;;;;;;13.87;9.80;;;;;;;10.23;100.00;99088.63;5073029;28;20021;-35
2023/10/27 03:30:25;;;;;;;14.40;9.47;;;;;;;10.24;100.00;99082.16;5072830;28;20029;-35
2023/10/27 03:32:51;;;;;;;17.60;10.18;;;;;;;10.23;100.00;99091.31;5072853;28;20354;-35
2023/10/27 03:35:16;;;;;;;13.40;9.50;;;;;;;10.20;100.00;99081.03;5073531;28;20448;-35
2023/10/27 03:37:42;;;;;;;14.70;8.38;;;;;;;10.24;100.00;99087.56;5073593;28;20074;-35
2023/10/27 03:40:08;;;;;;;14.13;9.07;;;;;;;10.22;100.00;99084.31;5073714;28;20119;-35
2023/10/27 03:42:34;;;;;;;13.63;8.88;;;;;;;10.16;100.00;99069.19;5073367;28;20262;-35
2023/10/27 03:44:59;;;;;;;14.40;9.07;;;;;;;10.20;100.00;99083.75;5077138;28;20024;-35
2023/10/27 03:47:25;;;;;;;17.38;10.20;;;;;;;10.14;100.00;99074.84;5076806;28;20031;-35
2023/10/27 03:49:51;;;;;;;13.48;9.50;;;;;;;10.24;100.00;99082.16;5076482;28;20030;-35
2023/10/27 03:52:17;;;;;;;15.75;10.45;;;;;;;10.21;100.00;99080.78;5076412;28;20070;-35
2023/10/27 03:54:42;;;;;;;15.15;8.98;;;;;;;10.21;100.00;99083.50;5076699;28;20020;-35
2023/10/27 03:57:07;;;;;;;15.90;9.07;;;;;;;10.21;100.00;99086.19;5076352;28;20075;-35
2023/10/27 03:59:33;;;;;;;17.13;9.57;;;;;;;10.21;100.00;99082.69;5076663;28;20024;-35
2023/10/27 04:01:58;;;;;;;13.40;8.17;;;;;;;10.21;100.00;99077.28;5076875;28;20021;-35
2023/10/27 04:04:24;;;;;;;13.68;9.10;;;;;;;10.18;100.00;99078.63;5076237;28;20826;-35
2023/10/27 04:06:49;;;;;;;15.77;8.25;;;;;;;10.17;100.00;99076.22;5076503;28;20044;-35
2023/10/27 04:09:15;;;;;;;10.82;8.07;;;;;;;10.22;100.00;99076.19;5076964;28;20154;-35
2023/10/27 04:11:40;;;;;;;12.50;7.83;;;;;;;10.14;100.00;99065.94;5076139;28;20103;-35
2023/10/27 04:14:05;;;;;;;13.27;8.20;;;;;;;10.18;100.00;99073.22;5076376;28;20313;-35
2023/10/27 04:16:31;;;;;;;13.13;8.27;;;;;;;10.17;100.00;99077.00;5076206;28;20020;-35
2023/10/27 04:18:57;;;;;;;15.25;8.25;;;;;;;10.09;100.00;99065.94;5076494;28;20346;-35
2023/10/27 04:21:22;;;;;;;;;;;;;;;10.25;100.00;99078.41;5076921;28;20033;-35
2023/10/27 04:23:48;;;;;;;12.50;7.90;;;;;;;10.14;100.00;99074.03;5076958;28;19904;-35
2023/10/27 04:26:15;;;;;;;10.13;7.70;;;;;;;10.17;100.00;99085.13;5076665;28;20074;-35
2023/10/27 04:28:41;;;;;;;12.60;7.35;;;;;;;10.16;100.00;99080.00;5076013;28;20024;-35
2023/10/27 04:31:06;;;;;;;10.02;7.72;;;;;;;10.14;100.00;99072.13;5076342;28;20028;-35
2023/10/27 04:33:33;;;;;;;13.73;7.80;;;;;;;10.13;100.00;99072.41;5075935;28;20070;-35
2023/10/27 04:35:58;;;;;;;11.98;7.10;;;;;;;10.14;100.00;99079.44;5075862;28;20031;-35
2023/10/27 04:38:24;;;;;;;11.85;8.20;;;;;;;10.11;100.00;99070.00;5075722;28;20028;-35
2023/10/27 04:40:51;;;;;;;12.47;7.67;;;;;;;10.06;100.00;99070.00;5075843;28;20033;-35
2023/10/27 04:43:17;;;;;;;11.45;7.20;;;;;;;10.10;100.00;99075.66;5076264;28;20353;-35
2023/10/27 04:45:42;;;;;;;11.68;8.05;;;;;;;10.03;100.00;99063.25;5075721;28;20020;-35
2023/10/27 04:48:07;;;;;;;11.73;7.57;;;;;;;10.12;100.00;99084.31;5075501;28;20028;-35
2023/10/27 04:50:35;;;;;;;12.33;7.50;;;;;;;9.98;100.00;99063.25;5075683;28;20047;-35
2023/10/27 04:53:00;;;;;;;11.10;7.60;;;;;;;10.11;100.00;99082.69;5075308;28;20267;-35
2023/10/27 04:55:26;;;;;;;12.52;7.75;;;;;;;10.12;100.00;99084.31;5075795;28;20036;-35
2023/10/27 04:57:51;;;;;;;10.13;6.77;;;;;;;10.14;100.00;99082.13;5074287;28;20415;-35
2023/10/27 05:00:16;;;;;;;9.23;7.32;;;;;;;10.14;100.00;99084.84;5075862;28;20017;-35
2023/10/27 05:02:42;;;;;;;11.00;6.80;;;;;;;10.07;100.00;99072.44;5075432;28;20020;-35
2023/10/27 05:05:08;;;;;;;11.50;6.90;;;;;;;10.14;100.00;99082.13;5075737;28;20270;-35
2023/10/27 05:07:33;;;;;;;11.02;6.93;;;;;;;10.15;100.00;99072.94;5075370;28;20032;-35
2023/10/27 05:09:59;;;;;;;11.63;8.00;;;;;;;10.06;100.00;99070.81;5074969;28;20487;-35
2023/10/27 05:12:24;;;;;;;12.57;8.07;;;;;;;10.13;100.00;99077.81;5075291;28;20040;-35
2023/10/27 05:14:50;;;;;;;11.52;7.55;;;;;;;10.14;100.00;99074.03;5075174;28;20270;-35
2023/10/27 05:17:17;;;;;;;10.32;6.45;;;;;;;10.02;100.00;99045.41;5074759;28;20021;-34
2023/10/27 05:19:42;;;;;;;10.57;7.50;;;;;;;10.12;100.00;99063.50;5075074;28;20031;-35
2023/10/27 05:22:08;;;;;;;10.67;7.37;;;;;;;10.05;100.00;99052.16;5075112;28;20021;-35
2023/10/27 05:24:34;;;;;;;8.88;6.22;;;;;;;10.13;100.00;99067.03;5074736;28;20024;-35
2023/10/27 05:26:59;;;;;;;;;;;;;;;10.19;100.00;99060.53;5075448;28;20029;-35
2023/10/27 05:29:26;;;;;;;9.70;6.47;;;;;;;10.13;100.00;99058.91;5075141;28;19911;-35
2023/10/27 05:31:51;;;;;;;13.63;7.53;;;;;;;10.03;100.00;99049.72;5075102;28;20471;-36
2023/10/27 05:34:17;;;;;;;9.75;7.55;;;;;;;10.01;100.00;99048.41;5074744;28;20028;-35
2023/10/27 05:36:42;;;;;;;11.43;7.45;;;;;;;10.09;100.00;99068.63;5074373;28;20035;-36
2023/10/27 05:39:08;;;;;;;12.10;7.40;;;;;;;10.09;100.00;99063.25;5075002;28;20103;-36
2023/10/27 05:41:33;;;;;;;10.15;7.53;;;;;;;10.06;100.00;99056.50;5074390;28;20024;-36
2023/10/27 05:43:58;;;;;;;17.20;7.47;;;;;;;9.99;100.00;99054.06;5074282;28;20020;-36
2023/10/27 05:46:24;;;;;;;9.40;6.63;;;;;;;10.01;100.00;99045.69;5075114;28;20032;-36
2023/10/27 05:48:49;;;;;;;11.18;7.22;;;;;;;10.01;100.00;99051.91;5074486;28;20030;-36
2023/10/27 05:51:15;;;;;;;11.87;7.13;;;;;;;10.00;100.00;99055.69;5074559;28;20067;-36
2023/10/27 05:53:41;;;;;;;11.75;6.45;;;;;;;9.82;100.00;99026.53;5074440;28;20262;-35
2023/10/27 05:56:06;;;;;;;15.57;8.65;;;;;;;9.97;100.00;99050.81;5074091;28;20107;-36
2023/10/27 05:58:33;;;;;;;10.30;7.17;;;;;;;9.91;100.00;99045.72;5074684;28;20070;-35
2023/10/27 06:00:59;;;;;;;12.50;7.15;;;;;;;9.90;100.00;99055.66;5074593;28;20042;-36
2023/10/27 06:03:25;;;;;;;;;;;;;;;10.01;100.00;99051.91;5074691;28;20070;-36
2023/10/27 06:05:52;;;;;;;11.03;6.97;;;;;;;9.97;100.00;99055.41;5073997;28;19904;-36
2023/10/27 06:08:18;;;;;;;11.00;7.45;;;;;;;9.96;100.00;99062.72;5074041;28;20275;-36
2023/10/27 06:10:44;;;;;;;;;;;;;;;10.02;100.00;99058.13;5074250;28;20050;-35
2023/10/27 06:13:09;;;;;;;10.70;6.88;;;;;;;9.95;100.00;99058.38;5073809;28;19908;-36
2023/10/27 06:15:34;;;;;;;13.87;7.50;;;;;;;9.96;100.00;99062.72;5074675;28;20456;-36
2023/10/27 06:18:00;;;;;;;9.30;6.60;;;;;;;9.97;100.00;99067.03;5074446;28;20070;-36
2023/10/27 06:20:25;;;;;;;10.15;7.35;;;;;;;9.99;100.00;99069.44;5074493;28;20024;-36
2023/10/27 06:22:50;;;;;;;11.17;7.10;;;;;;;9.99;100.00;99072.97;5073920;28;20020;-36
2023/10/27 06:25:16;;;;;;;9.83;6.77;;;;;;;10.00;100.00;99065.66;5074518;28;20539;-35
2023/10/27 06:27:41;;;;;;;10.73;6.97;;;;;;;10.00;100.00;99071.91;5073880;28;20266;-36
2023/10/27 06:30:07;;;;;;;7.93;5.80;;;;;;;10.02;100.00;99066.22;5074454;28;20103;-36
2023/10/27 06:32:32;;;;;;;8.30;6.10;;;;;;;10.02;100.00;99075.13;5073780;28;20262;-36
2023/10/27 06:34:58;;;;;;;9.25;5.95;;;;;;;10.02;100.00;99069.72;5074122;28;20052;-36
2023/10/27 06:37:23;;;;;;;7.83;6.80;;;;;;;9.96;100.00;99065.41;5073987;28;20024;-36
2023/10/27 06:39:50;;;;;;;10.73;7.55;;;;;;;9.98;100.00;99076.75;5074303;28;20259;-36
2023/10/27 06:42:16;;;;;;;11.57;7.05;;;;;;;9.90;100.00;99055.66;5073535;28;20074;-36
2023/10/27 06:44:41;;;;;;;11.38;7.43;;;;;;;9.98;100.00;99076.75;5073975;28;20020;-36
2023/10/27 06:47:06;;;;;;;9.20;6.93;;;;;;;9.97;100.00;99067.03;5073715;28;20432;-36
2023/10/27 06:49:32;;;;;;;9.27;7.27;;;;;;;9.98;100.00;99078.63;5073701;28;20020;-36
2023/10/27 06:51:57;;;;;;;9.47;7.30;;;;;;;9.92;100.00;99066.22;5073895;28;20269;-35
2023/10/27 06:54:24;;;;;;;11.23;6.87;;;;;;;9.87;100.00;99058.94;5073662;28;20020;-35
2023/10/27 06:56:50;;;;;;;8.38;6.70;;;;;;;9.99;100.00;99078.34;5073838;28;20076;-36
2023/10/27 06:59:16;;;;;;;10.88;7.30;;;;;;;9.99;100.00;99081.06;5074395;28;20449;-36
2023/10/27 07:01:44;;;;;;;9.35;7.22;;;;;;;9.99;100.00;99083.75;5074374;28;20437;-36
2023/10/27 07:04:09;;;;;;;7.68;6.18;;;;;;;10.02;100.00;99083.22;5073461;28;20020;-36
2023/10/27 07:06:34;;;;;;;11.50;6.43;;;;;;;10.03;100.00;99084.03;5073826;28;20039;-35
2023/10/27 07:09:00;;;;;;;9.17;7.00;;;;;;;10.02;100.00;99090.53;5073459;28;20341;-36
2023/10/27 07:11:25;;;;;;;9.80;6.65;;;;;;;9.91;100.00;99060.00;5074048;28;20055;-36
2023/10/27 07:13:50;;;;;;;9.40;6.37;;;;;;;10.01;100.00;99089.72;5073675;28;20390;-36
2023/10/27 07:16:16;;;;;;;6.83;5.80;;;;;;;10.07;100.00;99091.31;5073659;28;20509;-36
2023/10/27 07:18:41;;;;;;;8.03;6.20;;;;;;;10.11;100.00;99096.19;5075210;28;20360;-36
2023/10/27 07:21:07;;;;;;;8.23;6.00;;;;;;;10.12;100.00;99100.50;5077732;28;20259;-36
2023/10/27 07:23:33;;;;;;;9.50;7.28;;;;;;;10.12;100.00;99105.91;5077190;28;20096;-36
2023/10/27 07:25:58;;;;;;;9.30;6.72;;;;;;;10.14;100.00;99103.75;5076905;28;20028;-36
2023/10/27 07:28:23;;;;;;;8.97;6.23;;;;;;;10.15;100.00;99108.06;5077555;28;20042;-36
2023/10/27 07:30:49;;;;;;;8.77;7.10;;;;;;;10.18;100.00;99099.44;5077835;28;20059;-36
2023/10/27 07:33:14;;;;;;;9.25;7.20;;;;;;;10.18;100.00;99107.53;5077132;28;20341;-36
2023/10/27 07:35:40;;;;;;;8.48;6.32;;;;;;;10.18;100.00;99110.22;5077449;28;20068;-35
2023/10/27 07:38:05;;;;;;;8.80;7.25;;;;;;;10.10;100.00;99106.16;5076942;28;20077;-36
2023/10/27 07:40:33;;;;;;;9.15;6.45;;;;;;;10.09;100.00;99114.56;5077268;28;20025;-36
2023/10/27 07:42:59;;;;;;;7.03;6.05;;;;;;;10.12;100.00;99114.03;5077382;28;20021;-36
2023/10/27 07:45:25;;;;;;;7.45;6.45;;;;;;;10.14;100.00;99115.34;5077482;28;20425;-35
2023/10/27 07:47:51;;;;;;;7.72;6.90;;;;;;;10.11;100.00;99117.81;5076787;28;20411;-36
2023/10/27 07:50:17;;;;;;;9.60;7.47;;;;;;;10.12;100.00;99119.44;5077654;28;20050;-36
2023/10/27 07:52:43;;;;;;;7.25;6.55;;;;;;;10.11;100.00;99117.81;5076727;28;20036;-36
2023/10/27 07:55:09;;;;;;;8.60;6.13;;;;;;;10.15;100.00;99124.25;5077568;28;20021;-36
2023/10/27 07:57:34;;;;;;;7.23;6.13;;;;;;;10.10;100.00;99119.66;5076375;28;20037;-36
2023/10/27 08:00:00;;;;;;;7.07;6.03;;;;;;;10.12;100.00;99116.72;5076568;28;20017;-36
2023/10/27 08:02:26;;;;;;;6.57;5.82;;;;;;;10.20;100.00;99126.97;5076533;28;20024;-36
2023/10/27 08:04:51;;;;;;;7.33;6.30;;;;;;;10.24;100.00;99130.78;5077181;28;20433;-36
2023/10/27 08:07:17;;;;;;;6.18;5.57;;;;;;;10.17;100.00;99119.41;5076479;28;20071;-36
2023/10/27 08:09:42;;;;;;;7.50;5.45;;;;;;;10.21;100.00;99120.50;5076465;28;20044;-36
2023/10/27 08:12:08;;;;;;;6.77;5.47;;;;;;;10.31;100.00;99125.94;5076399;28;20028;-36
2023/10/27 08:14:33;;;;;;;5.88;5.35;;;;;;;10.34;100.00;99127.28;5076400;28;20021;-36
2023/10/27 08:16:59;;;;;;;9.80;6.45;;;;;;;10.27;100.00;99108.66;5076824;28;20047;-36
2023/10/27 08:19:24;;;;;;;6.97;5.60;;;;;;;10.33;100.00;99110.25;5076301;28;20024;-36
2023/10/27 08:21:49;;;;;;;6.88;5.85;;;;;;;10.22;100.00;99100.50;5077100;28;20026;-36
2023/10/27 08:24:16;;;;;;;6.83;5.50;;;;;;;10.35;100.00;99115.41;5076261;28;20020;-36
2023/10/27 08:26:41;;;;;;;6.22;5.38;;;;;;;10.34;100.00;99114.56;5076431;28;20332;-36
2023/10/27 08:29:06;;;;;;;7.65;5.78;;;;;;;10.33;100.00;99123.75;5076480;28;20456;-36
2023/10/27 08:31:32;;;;;;;9.53;5.90;;;;;;;10.31;100.00;99136.75;5076136;28;20017;-36
2023/10/27 08:34:00;;;;;;;5.97;5.20;;;;;;;10.33;100.00;99139.97;5076129;28;20021;-36
2023/10/27 08:36:27;;;;;;;8.50;5.82;;;;;;;10.32;100.00;99147.28;5076174;28;20251;-36
2023/10/27 08:38:54;;;;;;;8.00;5.72;;;;;;;10.31;100.00;99145.66;5075885;28;20082;-36
2023/10/27 08:41:21;;;;;;;6.00;5.40;;;;;;;10.35;100.00;99153.22;5076454;28;20036;-36
2023/10/27 08:43:46;;;;;;;5.70;4.75;;;;;;;10.35;100.00;99154.03;5075807;28;20052;-35
2023/10/27 08:46:12;;;;;;;6.18;4.80;;;;;;;10.34;100.00;99148.88;5076119;28;20052;-36
2023/10/27 08:48:38;;;;;;;7.78;5.65;;;;;;;10.38;100.00;99156.19;5075808;28;20023;-36
2023/10/27 08:51:05;;;;;;;6.05;5.05;;;;;;;10.37;100.00;99165.38;5076088;28;20415;-36
2023/10/27 08:53:31;;;;;;;8.10;4.97;;;;;;;10.38;100.00;99167.00;5075360;28;20437;-36
2023/10/27 08:55:59;;;;;;;4.72;4.13;;;;;;;10.39;100.00;99165.91;5075499;28;20096;-36
2023/10/27 08:58:24;;;;;;;6.45;5.10;;;;;;;10.37;100.00;99164.56;5075532;28;20428;-36
2023/10/27 09:00:50;;;;;;;4.93;4.43;;;;;;;10.39;100.00;99163.19;5075546;28;20025;-35
2023/10/27 09:03:16;;;;;;;5.18;4.68;;;;;;;10.38;100.00;99168.88;5075534;28;20104;-35
2023/10/27 09:05:42;;;;;;;5.60;4.38;;;;;;;10.38;100.00;99166.19;5075135;28;20020;-36
2023/10/27 09:08:08;;;;;;;;;;;;;;;10.48;100.00;99163.47;5075479;28;20078;-36
2023/10/27 09:10:33;;;;;;;5.40;4.90;;;;;;;10.38;100.00;99158.06;5075648;28;19904;-36
2023/10/27 09:13:00;;;;;;;5.47;4.93;;;;;;;10.42;100.00;99165.38;5075073;28;20025;-36
2023/10/27 09:15:25;;;;;;;5.25;4.75;;;;;;;10.43;100.00;99171.59;5075267;28;20320;-35
2023/10/27 09:17:53;;;;;;;6.90;5.73;;;;;;;10.47;100.00;99165.38;5075140;28;20048;-36
2023/10/27 09:20:21;;;;;;;5.50;5.00;;;;;;;10.48;100.00;99175.09;5075133;28;20108;-36
2023/10/27 09:23:00;;;;;;;5.35;4.78;;;;;;;10.51;100.00;99185.38;5075002;28;20094;-36
2023/10/27 09:25:28;;;;;;;5.63;5.13;;;;;;;10.51;100.00;99176.47;5075317;28;20024;-36
2023/10/27 09:27:54;;;;;;;6.72;5.38;;;;;;;10.52;100.00;99178.06;5075739;28;20081;-36
2023/10/27 09:30:30;;;;;;;5.43;4.82;;;;;;;10.54;100.00;99181.31;5075222;28;20021;-36
2023/10/27 09:33:12;;;;;;;5.72;5.10;;;;;;;10.57;100.00;99170.75;5074831;28;20044;-36
2023/10/27 09:35:37;;;;;;;5.30;4.80;;;;;;;10.57;100.00;99170.75;5074821;28;20032;-36
2023/10/27 09:38:03;;;;;;;6.10;4.77;;;;;;;10.58;100.00;99177.78;5074682;28;20019;-36
2023/10/27 09:40:28;;;;;;;5.10;4.60;;;;;;;10.53;100.00;99166.97;5074491;28;20259;-36
2023/10/27 09:42:58;;;;;;;4.70;4.30;;;;;;;10.60;100.00;99177.53;5074420;28;20021;-35
2023/10/27 09:45:27;;;;;;;4.45;4.05;;;;;;;10.65;100.00;99182.94;5075136;28;20270;-36
2023/10/27 09:48:02;;;;;;;4.13;3.72;;;;;;;10.65;100.00;99182.13;5074522;28;20119;-36
2023/10/27 09:50:29;;;;;;;4.85;4.35;;;;;;;10.67;100.00;99174.53;5074898;28;20099;-36
2023/10/27 09:53:00;;;;;;;4.20;3.80;;;;;;;10.68;100.00;99182.38;5074395;28;20510;-36
2023/10/27 09:55:29;;;;;;;4.05;3.72;;;;;;;10.64;100.00;99166.97;5074524;28;20025;-36
2023/10/27 09:57:55;;;;;;;5.03;4.53;;;;;;;10.74;100.00;99166.97;5074084;28;20074;-36
2023/10/27 10:00:25;;;;;;;5.55;4.00;;;;;;;10.79;100.00;99161.56;5074932;28;20028;-36
2023/10/27 10:02:51;;;;;;;6.25;4.55;;;;;;;10.81;100.00;99151.28;5074525;28;20024;-36
2023/10/27 10:05:16;;;;;;;3.95;3.65;;;;;;;10.83;100.00;99159.91;5074024;28;20016;-36
2023/10/27 10:07:52;;;;;;;4.17;3.77;;;;;;;10.73;100.00;99144.53;5074214;28;20032;-36
2023/10/27 10:10:28;;;;;;;4.50;4.10;;;;;;;10.87;100.00;99155.59;5075051;28;20089;-36
2023/10/27 10:13:04;;;;;;;4.97;4.43;;;;;;;10.92;100.00;99160.97;5074103;28;20070;-36
2023/10/27 10:15:32;;;;;;;4.65;4.25;;;;;;;10.91;100.00;99161.25;5074060;28;20059;-36
2023/10/27 10:18:01;;;;;;;4.93;4.43;;;;;;;10.98;100.00;99161.78;5073964;28;20017;-36
2023/10/27 10:20:44;;;;;;;4.07;3.70;;;;;;;11.06;100.00;99162.03;5074285;28;20070;-36
2023/10/27 10:23:10;;;;;;;6.03;4.13;;;;;;;11.11;100.00;99165.81;5074484;28;20028;-36
2023/10/27 10:25:36;;;;;;;4.13;3.72;;;;;;;11.06;100.00;99170.13;5073988;28;20059;-36
2023/10/27 10:28:07;;;;;;;4.68;4.00;;;;;;;11.12;100.00;99186.34;5074728;28;20055;-36
2023/10/27 10:30:33;;;;;;;3.97;3.67;;;;;;;11.08;100.00;99178.81;5074173;28;20028;-36
2023/10/27 10:33:15;;;;;;;4.35;3.95;;;;;;;11.15;100.00;99194.75;5073832;28;20016;-36
2023/10/27 10:35:45;;;;;;;4.78;3.55;;;;;;;11.04;100.00;99191.25;5073669;28;20021;-35
2023/10/27 10:38:20;;;;;;;4.28;3.70;;;;;;;11.12;100.00;99194.47;5074110;28;20333;-35
2023/10/27 10:40:50;;;;;;;3.95;3.65;;;;;;;11.12;100.00;99191.75;5073678;28;20024;-35
2023/10/27 10:43:18;;;;;;;4.78;4.07;;;;;;;10.99;100.00;99176.94;5073586;28;20027;-35
2023/10/27 10:45:45;;;;;;;5.03;4.53;;;;;;;11.14;100.00;99195.03;5073911;28;20025;-36
2023/10/27 10:48:12;;;;;;;4.43;4.03;;;;;;;11.15;100.00;99205.56;5074117;28;20111;-35
2023/10/27 10:50:37;;;;;;;5.00;4.03;;;;;;;11.06;100.00;99186.38;5073353;28;20027;-35
2023/10/27 10:53:30;;;;;;;4.70;3.70;;;;;;;11.14;100.00;99195.03;5074199;28;20024;-35
2023/10/27 10:56:00;;;;;;;4.07;3.60;;;;;;;10.99;100.00;99190.47;5070983;28;20040;-35
2023/10/27 10:58:27;;;;;;;4.15;3.75;;;;;;;11.06;100.00;99196.38;5074290;28;20032;-35
2023/10/27 11:00:55;;;;;;;5.25;4.00;;;;;;;10.96;100.00;99180.19;5073398;28;20021;-35
2023/10/27 11:03:22;;;;;;;5.30;3.45;;;;;;;11.01;100.00;99189.09;5073441;28;20094;-35
2023/10/27 11:05:51;;;;;;;5.00;3.92;;;;;;;10.99;100.00;99188.56;5074042;28;20024;-36
2023/10/27 11:08:27;;;;;;;5.18;4.60;;;;;;;11.01;100.00;99193.69;5073345;28;20082;-35
2023/10/27 11:11:09;;;;;;;5.65;5.00;;;;;;;10.97;100.00;99195.31;5073438;28;20047;-35
2023/10/27 11:13:43;;;;;;;6.53;5.35;;;;;;;10.88;100.00;99178.81;5073895;28;20028;-35
2023/10/27 11:16:21;;;;;;;5.88;4.80;;;;;;;10.92;100.00;99190.72;5074181;28;20021;-35
2023/10/27 11:18:49;;;;;;;7.80;6.20;;;;;;;10.86;100.00;99174.78;5073610;28;20025;-35